sensor_id;sensor_type;location;lat;lon;timestamp;temperature;humidity
1447;DHT22;717;51.522;7.266;2023-04-24T00:02:21;14.40;99.90
1447;DHT22;717;51.522;7.266;2023-04-24T00:04:51;14.50;99.90
1447;DHT22;717;51.522;7.266;2023-04-24T00:07:19;14.50;99.90
1447;DHT22;717;51.522;7.266;2023-04-24T00:09:48;14.50;99.90
1447;DHT22;717;51.522;7.266;2023-04-24T00:12:19;14.50;99.90
1447;DHT22;717;51.522;7.266;2023-04-24T00:14:47;14.50;99.90
1447;DHT22;717;51.522;7.266;2023-04-24T00:17:16;14.40;99.90
1447;DHT22;717;51.522;7.266;2023-04-24T00:19:46;14.40;99.90
1447;DHT22;717;51.522;7.266;2023-04-24T00:22:16;14.40;99.90
1447;DHT22;717;51.522;7.266;2023-04-24T00:24:46;14.40;99.90
1447;DHT22;717;51.522;7.266;2023-04-24T00:27:14;14.40;99.90
1447;DHT22;717;51.522;7.266;2023-04-24T00:29:46;14.40;99.90
1447;DHT22;717;51.522;7.266;2023-04-24T00:32:14;14.30;99.90
1447;DHT22;717;51.522;7.266;2023-04-24T00:34:43;14.30;99.90
1447;DHT22;717;51.522;7.266;2023-04-24T00:37:11;14.20;99.90
1447;DHT22;717;51.522;7.266;2023-04-24T00:39:40;14.20;99.90
1447;DHT22;717;51.522;7.266;2023-04-24T00:42:09;14.20;99.90
1447;DHT22;717;51.522;7.266;2023-04-24T00:44:37;14.20;99.90
1447;DHT22;717;51.522;7.266;2023-04-24T00:47:09;14.10;99.90
1447;DHT22;717;51.522;7.266;2023-04-24T00:49:39;14.20;99.90
1447;DHT22;717;51.522;7.266;2023-04-24T00:52:07;14.20;99.90
1447;DHT22;717;51.522;7.266;2023-04-24T00:54:36;14.20;99.90
1447;DHT22;717;51.522;7.266;2023-04-24T00:57:05;14.20;99.90
1447;DHT22;717;51.522;7.266;2023-04-24T00:59:34;14.10;99.90
1447;DHT22;717;51.522;7.266;2023-04-24T01:02:02;14.00;99.90
1447;DHT22;717;51.522;7.266;2023-04-24T01:04:33;14.00;99.90
1447;DHT22;717;51.522;7.266;2023-04-24T01:07:02;14.00;99.90
1447;DHT22;717;51.522;7.266;2023-04-24T01:09:35;14.00;99.90
1447;DHT22;717;51.522;7.266;2023-04-24T01:12:04;14.00;99.90
1447;DHT22;717;51.522;7.266;2023-04-24T01:14:33;14.00;99.90
1447;DHT22;717;51.522;7.266;2023-04-24T01:17:01;13.90;99.90
1447;DHT22;717;51.522;7.266;2023-04-24T01:19:32;13.90;99.90
1447;DHT22;717;51.522;7.266;2023-04-24T01:22:02;13.90;99.90
1447;DHT22;717;51.522;7.266;2023-04-24T01:24:33;13.90;99.90
1447;DHT22;717;51.522;7.266;2023-04-24T01:27:02;13.80;99.90
1447;DHT22;717;51.522;7.266;2023-04-24T01:29:31;13.80;99.90
1447;DHT22;717;51.522;7.266;2023-04-24T01:31:59;13.80;99.90
1447;DHT22;717;51.522;7.266;2023-04-24T01:34:28;13.70;99.90
1447;DHT22;717;51.522;7.266;2023-04-24T01:36:56;13.70;99.90
1447;DHT22;717;51.522;7.266;2023-04-24T01:39:25;13.70;99.90
1447;DHT22;717;51.522;7.266;2023-04-24T01:41:57;13.70;99.90
1447;DHT22;717;51.522;7.266;2023-04-24T01:44:26;13.80;99.90
1447;DHT22;717;51.522;7.266;2023-04-24T01:46:55;13.80;99.90
1447;DHT22;717;51.522;7.266;2023-04-24T01:49:23;13.70;99.90
1447;DHT22;717;51.522;7.266;2023-04-24T01:51:52;13.60;99.90
1447;DHT22;717;51.522;7.266;2023-04-24T01:54:21;13.60;99.90
1447;DHT22;717;51.522;7.266;2023-04-24T01:56:49;13.60;99.90
1447;DHT22;717;51.522;7.266;2023-04-24T01:59:20;13.60;99.90
1447;DHT22;717;51.522;7.266;2023-04-24T02:01:49;13.60;99.90
1447;DHT22;717;51.522;7.266;2023-04-24T02:04:18;13.60;99.90
1447;DHT22;717;51.522;7.266;2023-04-24T02:06:46;13.60;99.90
1447;DHT22;717;51.522;7.266;2023-04-24T02:09:15;13.60;99.90
1447;DHT22;717;51.522;7.266;2023-04-24T02:11:43;13.60;99.90
1447;DHT22;717;51.522;7.266;2023-04-24T02:14:12;13.60;99.90
1447;DHT22;717;51.522;7.266;2023-04-24T02:16:43;13.40;99.90
1447;DHT22;717;51.522;7.266;2023-04-24T02:19:12;13.40;99.90
1447;DHT22;717;51.522;7.266;2023-04-24T02:21:40;13.40;99.90
1447;DHT22;717;51.522;7.266;2023-04-24T02:24:09;13.40;99.90
1447;DHT22;717;51.522;7.266;2023-04-24T02:26:37;13.30;99.90
1447;DHT22;717;51.522;7.266;2023-04-24T02:29:06;13.20;99.90
1447;DHT22;717;51.522;7.266;2023-04-24T02:31:34;13.20;99.90
1447;DHT22;717;51.522;7.266;2023-04-24T02:34:05;13.10;99.90
1447;DHT22;717;51.522;7.266;2023-04-24T02:36:34;13.10;99.90
1447;DHT22;717;51.522;7.266;2023-04-24T02:39:02;13.00;99.90
1447;DHT22;717;51.522;7.266;2023-04-24T02:41:31;12.90;99.90
1447;DHT22;717;51.522;7.266;2023-04-24T02:43:59;12.80;99.90
1447;DHT22;717;51.522;7.266;2023-04-24T02:46:28;12.70;99.90
1447;DHT22;717;51.522;7.266;2023-04-24T02:48:57;12.70;99.90
1447;DHT22;717;51.522;7.266;2023-04-24T02:51:28;12.70;99.90
1447;DHT22;717;51.522;7.266;2023-04-24T02:53:56;12.80;99.90
1447;DHT22;717;51.522;7.266;2023-04-24T02:56:25;12.80;99.90
1447;DHT22;717;51.522;7.266;2023-04-24T02:58:53;12.80;99.90
1447;DHT22;717;51.522;7.266;2023-04-24T03:01:22;12.80;99.90
1447;DHT22;717;51.522;7.266;2023-04-24T03:03:50;12.80;99.90
1447;DHT22;717;51.522;7.266;2023-04-24T03:06:19;12.70;99.90
1447;DHT22;717;51.522;7.266;2023-04-24T03:08:50;12.60;99.90
1447;DHT22;717;51.522;7.266;2023-04-24T03:11:18;12.60;99.90
1447;DHT22;717;51.522;7.266;2023-04-24T03:13:47;12.60;99.90
1447;DHT22;717;51.522;7.266;2023-04-24T03:16:15;12.60;99.90
1447;DHT22;717;51.522;7.266;2023-04-24T03:18:44;12.60;99.90
1447;DHT22;717;51.522;7.266;2023-04-24T03:21:12;12.60;99.90
1447;DHT22;717;51.522;7.266;2023-04-24T03:23:41;12.50;99.90
1447;DHT22;717;51.522;7.266;2023-04-24T03:26:12;12.50;99.90
1447;DHT22;717;51.522;7.266;2023-04-24T03:28:40;12.60;99.90
1447;DHT22;717;51.522;7.266;2023-04-24T03:31:09;12.60;99.90
1447;DHT22;717;51.522;7.266;2023-04-24T03:33:37;12.60;99.90
1447;DHT22;717;51.522;7.266;2023-04-24T03:36:06;12.70;99.90
1447;DHT22;717;51.522;7.266;2023-04-24T03:38:35;12.70;99.90
1447;DHT22;717;51.522;7.266;2023-04-24T03:41:03;12.80;99.90
1447;DHT22;717;51.522;7.266;2023-04-24T03:43:34;12.80;99.90
1447;DHT22;717;51.522;7.266;2023-04-24T03:46:03;12.80;99.90
1447;DHT22;717;51.522;7.266;2023-04-24T03:48:32;12.80;99.90
1447;DHT22;717;51.522;7.266;2023-04-24T03:51:01;12.80;99.90
1447;DHT22;717;51.522;7.266;2023-04-24T03:53:29;12.80;99.90
1447;DHT22;717;51.522;7.266;2023-04-24T03:55:58;12.80;99.90
1447;DHT22;717;51.522;7.266;2023-04-24T03:58:26;12.80;99.90
1447;DHT22;717;51.522;7.266;2023-04-24T04:00:57;12.80;99.90
1447;DHT22;717;51.522;7.266;2023-04-24T04:03:26;12.70;99.90
1447;DHT22;717;51.522;7.266;2023-04-24T04:05:54;12.80;99.90
1447;DHT22;717;51.522;7.266;2023-04-24T04:08:23;12.70;99.90
1447;DHT22;717;51.522;7.266;2023-04-24T04:10:51;12.70;99.90
1447;DHT22;717;51.522;7.266;2023-04-24T04:13:20;12.70;99.90
1447;DHT22;717;51.522;7.266;2023-04-24T04:15:48;12.70;99.90
1447;DHT22;717;51.522;7.266;2023-04-24T04:18:20;12.70;99.90
1447;DHT22;717;51.522;7.266;2023-04-24T04:20:48;12.80;99.90
1447;DHT22;717;51.522;7.266;2023-04-24T04:23:17;12.80;99.90
1447;DHT22;717;51.522;7.266;2023-04-24T04:25:45;12.90;99.90
1447;DHT22;717;51.522;7.266;2023-04-24T04:28:15;12.80;99.90
1447;DHT22;717;51.522;7.266;2023-04-24T04:30:45;12.80;99.90
1447;DHT22;717;51.522;7.266;2023-04-24T04:33:13;12.70;99.90
1447;DHT22;717;51.522;7.266;2023-04-24T04:35:45;12.70;99.90
1447;DHT22;717;51.522;7.266;2023-04-24T04:38:14;12.80;99.90
1447;DHT22;717;51.522;7.266;2023-04-24T04:40:42;12.80;99.90
1447;DHT22;717;51.522;7.266;2023-04-24T04:43:11;12.70;99.90
1447;DHT22;717;51.522;7.266;2023-04-24T04:45:40;12.70;99.90
1447;DHT22;717;51.522;7.266;2023-04-24T04:48:10;12.70;99.90
1447;DHT22;717;51.522;7.266;2023-04-24T04:50:39;12.70;99.90
1447;DHT22;717;51.522;7.266;2023-04-24T04:53:10;12.70;99.90
1447;DHT22;717;51.522;7.266;2023-04-24T04:55:39;12.80;99.90
1447;DHT22;717;51.522;7.266;2023-04-24T04:58:07;12.70;99.90
1447;DHT22;717;51.522;7.266;2023-04-24T05:00:36;12.80;99.90
1447;DHT22;717;51.522;7.266;2023-04-24T05:03:04;12.80;99.90
1447;DHT22;717;51.522;7.266;2023-04-24T05:05:33;12.80;99.90
1447;DHT22;717;51.522;7.266;2023-04-24T05:08:06;12.80;99.90
1447;DHT22;717;51.522;7.266;2023-04-24T05:10:37;12.80;99.90
1447;DHT22;717;51.522;7.266;2023-04-24T05:13:05;12.80;99.90
1447;DHT22;717;51.522;7.266;2023-04-24T05:15:34;12.80;99.90
1447;DHT22;717;51.522;7.266;2023-04-24T05:18:02;12.80;99.90
1447;DHT22;717;51.522;7.266;2023-04-24T05:20:31;12.80;99.90
1447;DHT22;717;51.522;7.266;2023-04-24T05:22:59;12.80;99.90
1447;DHT22;717;51.522;7.266;2023-04-24T05:25:28;12.80;99.90
1447;DHT22;717;51.522;7.266;2023-04-24T05:28:03;12.80;99.90
1447;DHT22;717;51.522;7.266;2023-04-24T05:30:32;12.80;99.90
1447;DHT22;717;51.522;7.266;2023-04-24T05:33:00;12.70;99.90
1447;DHT22;717;51.522;7.266;2023-04-24T05:35:29;12.70;99.90
1447;DHT22;717;51.522;7.266;2023-04-24T05:37:57;12.80;99.90
1447;DHT22;717;51.522;7.266;2023-04-24T05:40:26;12.80;99.90
1447;DHT22;717;51.522;7.266;2023-04-24T05:42:54;12.70;99.90
1447;DHT22;717;51.522;7.266;2023-04-24T05:45:25;12.70;99.90
1447;DHT22;717;51.522;7.266;2023-04-24T05:47:54;12.70;99.90
1447;DHT22;717;51.522;7.266;2023-04-24T05:50:23;12.60;99.90
1447;DHT22;717;51.522;7.266;2023-04-24T05:52:51;12.50;99.90
1447;DHT22;717;51.522;7.266;2023-04-24T05:55:20;12.50;99.90
1447;DHT22;717;51.522;7.266;2023-04-24T05:57:49;12.50;99.90
1447;DHT22;717;51.522;7.266;2023-04-24T06:00:17;12.50;99.90
1447;DHT22;717;51.522;7.266;2023-04-24T06:02:49;12.60;99.90
1447;DHT22;717;51.522;7.266;2023-04-24T06:05:18;12.60;99.90
1447;DHT22;717;51.522;7.266;2023-04-24T06:07:47;12.50;99.90
1447;DHT22;717;51.522;7.266;2023-04-24T06:10:16;12.40;99.90
1447;DHT22;717;51.522;7.266;2023-04-24T06:12:45;12.50;99.90
1447;DHT22;717;51.522;7.266;2023-04-24T06:15:13;12.40;99.90
1447;DHT22;717;51.522;7.266;2023-04-24T06:17:42;12.30;99.90
1447;DHT22;717;51.522;7.266;2023-04-24T06:20:13;12.40;99.90
1447;DHT22;717;51.522;7.266;2023-04-24T06:22:41;12.30;99.90
1447;DHT22;717;51.522;7.266;2023-04-24T06:25:10;12.30;99.90
1447;DHT22;717;51.522;7.266;2023-04-24T06:27:39;12.30;99.90
1447;DHT22;717;51.522;7.266;2023-04-24T06:30:09;12.20;99.90
1447;DHT22;717;51.522;7.266;2023-04-24T06:32:37;12.20;99.90
1447;DHT22;717;51.522;7.266;2023-04-24T06:35:07;12.20;99.90
1447;DHT22;717;51.522;7.266;2023-04-24T06:37:41;12.20;99.90
1447;DHT22;717;51.522;7.266;2023-04-24T06:40:10;12.20;99.90
1447;DHT22;717;51.522;7.266;2023-04-24T06:42:39;12.10;99.90
1447;DHT22;717;51.522;7.266;2023-04-24T06:45:08;12.10;99.90
1447;DHT22;717;51.522;7.266;2023-04-24T06:47:37;12.10;99.90
1447;DHT22;717;51.522;7.266;2023-04-24T06:50:07;12.10;99.90
1447;DHT22;717;51.522;7.266;2023-04-24T06:52:35;12.10;99.90
1447;DHT22;717;51.522;7.266;2023-04-24T06:55:08;12.20;99.90
1447;DHT22;717;51.522;7.266;2023-04-24T06:57:36;12.20;99.90
1447;DHT22;717;51.522;7.266;2023-04-24T07:00:06;12.10;99.90
1447;DHT22;717;51.522;7.266;2023-04-24T07:02:35;12.20;99.90
1447;DHT22;717;51.522;7.266;2023-04-24T07:05:04;12.20;99.90
1447;DHT22;717;51.522;7.266;2023-04-24T07:07:33;12.10;99.90
1447;DHT22;717;51.522;7.266;2023-04-24T07:10:06;12.20;99.90
1447;DHT22;717;51.522;7.266;2023-04-24T07:12:35;12.30;99.90
1447;DHT22;717;51.522;7.266;2023-04-24T07:15:05;12.30;99.90
1447;DHT22;717;51.522;7.266;2023-04-24T07:17:34;12.40;99.90
1447;DHT22;717;51.522;7.266;2023-04-24T07:20:05;12.40;99.90
1447;DHT22;717;51.522;7.266;2023-04-24T07:22:34;12.40;99.90
1447;DHT22;717;51.522;7.266;2023-04-24T07:25:07;12.40;99.90
1447;DHT22;717;51.522;7.266;2023-04-24T07:27:36;12.40;99.90
1447;DHT22;717;51.522;7.266;2023-04-24T07:30:05;12.40;99.90
1447;DHT22;717;51.522;7.266;2023-04-24T07:32:34;12.50;99.90
1447;DHT22;717;51.522;7.266;2023-04-24T07:35:03;12.50;99.90
1447;DHT22;717;51.522;7.266;2023-04-24T07:37:32;12.40;99.90
1447;DHT22;717;51.522;7.266;2023-04-24T07:40:01;12.40;99.90
1447;DHT22;717;51.522;7.266;2023-04-24T07:42:32;12.40;99.90
1447;DHT22;717;51.522;7.266;2023-04-24T07:45:02;12.40;99.90
1447;DHT22;717;51.522;7.266;2023-04-24T07:47:31;12.30;99.90
1447;DHT22;717;51.522;7.266;2023-04-24T07:50:00;12.30;99.90
1447;DHT22;717;51.522;7.266;2023-04-24T07:52:28;12.30;99.90
1447;DHT22;717;51.522;7.266;2023-04-24T07:54:57;12.20;99.90
1447;DHT22;717;51.522;7.266;2023-04-24T07:57:27;12.10;99.90
1447;DHT22;717;51.522;7.266;2023-04-24T07:59:58;12.10;99.90
1447;DHT22;717;51.522;7.266;2023-04-24T08:02:27;12.10;99.90
1447;DHT22;717;51.522;7.266;2023-04-24T08:04:56;12.00;99.90
1447;DHT22;717;51.522;7.266;2023-04-24T08:07:24;12.00;99.90
1447;DHT22;717;51.522;7.266;2023-04-24T08:09:53;12.00;99.90
1447;DHT22;717;51.522;7.266;2023-04-24T08:12:21;12.10;99.90
1447;DHT22;717;51.522;7.266;2023-04-24T08:14:49;12.00;99.90
1447;DHT22;717;51.522;7.266;2023-04-24T08:17:21;11.90;99.90
1447;DHT22;717;51.522;7.266;2023-04-24T08:19:49;11.90;99.90
1447;DHT22;717;51.522;7.266;2023-04-24T08:22:24;12.10;99.90
1447;DHT22;717;51.522;7.266;2023-04-24T08:24:53;12.00;99.90
1447;DHT22;717;51.522;7.266;2023-04-24T08:27:22;11.90;99.90
1447;DHT22;717;51.522;7.266;2023-04-24T08:29:52;11.80;99.90
1447;DHT22;717;51.522;7.266;2023-04-24T08:32:23;11.90;99.90
1447;DHT22;717;51.522;7.266;2023-04-24T08:34:53;11.90;99.90
1447;DHT22;717;51.522;7.266;2023-04-24T08:37:22;11.90;99.90
1447;DHT22;717;51.522;7.266;2023-04-24T08:39:50;11.80;99.90
1447;DHT22;717;51.522;7.266;2023-04-24T08:42:20;11.70;99.90
1447;DHT22;717;51.522;7.266;2023-04-24T08:44:49;11.70;99.90
1447;DHT22;717;51.522;7.266;2023-04-24T08:47:19;11.70;99.90
1447;DHT22;717;51.522;7.266;2023-04-24T08:49:51;11.80;99.90
1447;DHT22;717;51.522;7.266;2023-04-24T08:52:23;11.80;99.90
1447;DHT22;717;51.522;7.266;2023-04-24T08:54:54;11.80;99.90
1447;DHT22;717;51.522;7.266;2023-04-24T08:57:23;11.80;99.90
1447;DHT22;717;51.522;7.266;2023-04-24T08:59:52;11.80;99.90
1447;DHT22;717;51.522;7.266;2023-04-24T09:02:22;11.70;99.90
1447;DHT22;717;51.522;7.266;2023-04-24T09:04:53;11.60;99.90
1447;DHT22;717;51.522;7.266;2023-04-24T09:07:24;11.50;99.90
1447;DHT22;717;51.522;7.266;2023-04-24T09:09:54;11.50;99.90
1447;DHT22;717;51.522;7.266;2023-04-24T09:12:23;11.40;99.90
1447;DHT22;717;51.522;7.266;2023-04-24T09:14:52;11.40;99.90
1447;DHT22;717;51.522;7.266;2023-04-24T09:17:21;11.40;99.90
1447;DHT22;717;51.522;7.266;2023-04-24T09:19:55;11.50;99.90
1447;DHT22;717;51.522;7.266;2023-04-24T09:22:23;11.60;99.90
1447;DHT22;717;51.522;7.266;2023-04-24T09:25:01;11.60;99.90
1447;DHT22;717;51.522;7.266;2023-04-24T09:27:31;11.60;99.90
1447;DHT22;717;51.522;7.266;2023-04-24T09:30:00;11.60;99.90
1447;DHT22;717;51.522;7.266;2023-04-24T09:32:29;11.60;99.90
1447;DHT22;717;51.522;7.266;2023-04-24T09:35:12;11.70;99.90
1447;DHT22;717;51.522;7.266;2023-04-24T09:37:43;11.70;99.90
1447;DHT22;717;51.522;7.266;2023-04-24T09:40:13;11.80;99.90
1447;DHT22;717;51.522;7.266;2023-04-24T09:42:51;11.90;99.90
1447;DHT22;717;51.522;7.266;2023-04-24T09:45:20;12.00;99.90
1447;DHT22;717;51.522;7.266;2023-04-24T09:47:52;12.10;99.90
1447;DHT22;717;51.522;7.266;2023-04-24T09:50:23;12.10;99.90
1447;DHT22;717;51.522;7.266;2023-04-24T09:52:57;12.00;99.90
1447;DHT22;717;51.522;7.266;2023-04-24T09:55:26;12.00;99.90
1447;DHT22;717;51.522;7.266;2023-04-24T09:57:58;12.00;99.90
1447;DHT22;717;51.522;7.266;2023-04-24T10:00:32;12.10;99.90
1447;DHT22;717;51.522;7.266;2023-04-24T10:03:02;12.10;99.90
1447;DHT22;717;51.522;7.266;2023-04-24T10:05:34;12.00;99.90
1447;DHT22;717;51.522;7.266;2023-04-24T10:08:06;11.90;99.90
1447;DHT22;717;51.522;7.266;2023-04-24T10:10:40;11.90;99.90
1447;DHT22;717;51.522;7.266;2023-04-24T10:13:10;11.90;99.90
1447;DHT22;717;51.522;7.266;2023-04-24T10:15:40;11.80;99.90
1447;DHT22;717;51.522;7.266;2023-04-24T10:18:09;11.80;99.90
1447;DHT22;717;51.522;7.266;2023-04-24T10:20:41;11.80;99.90
1447;DHT22;717;51.522;7.266;2023-04-24T10:23:09;11.60;99.90
1447;DHT22;717;51.522;7.266;2023-04-24T10:25:39;11.60;99.90
1447;DHT22;717;51.522;7.266;2023-04-24T10:28:08;11.50;99.90
1447;DHT22;717;51.522;7.266;2023-04-24T10:30:39;11.40;99.90
1447;DHT22;717;51.522;7.266;2023-04-24T10:33:11;11.40;99.90
1447;DHT22;717;51.522;7.266;2023-04-24T10:35:46;11.50;99.90
1447;DHT22;717;51.522;7.266;2023-04-24T10:38:21;11.40;99.90
1447;DHT22;717;51.522;7.266;2023-04-24T10:40:57;11.40;99.90
1447;DHT22;717;51.522;7.266;2023-04-24T10:43:26;11.40;99.90
1447;DHT22;717;51.522;7.266;2023-04-24T10:46:01;11.40;99.90
1447;DHT22;717;51.522;7.266;2023-04-24T10:48:31;11.60;99.90
1447;DHT22;717;51.522;7.266;2023-04-24T10:51:03;11.60;99.90
1447;DHT22;717;51.522;7.266;2023-04-24T10:53:35;11.50;99.90
1447;DHT22;717;51.522;7.266;2023-04-24T10:56:05;11.50;99.90
1447;DHT22;717;51.522;7.266;2023-04-24T10:58:40;11.40;99.90
1447;DHT22;717;51.522;7.266;2023-04-24T11:01:23;11.30;99.90
1447;DHT22;717;51.522;7.266;2023-04-24T11:03:55;11.40;99.90
1447;DHT22;717;51.522;7.266;2023-04-24T11:06:34;11.50;99.90
1447;DHT22;717;51.522;7.266;2023-04-24T11:09:04;11.60;99.90
1447;DHT22;717;51.522;7.266;2023-04-24T11:11:34;11.60;99.90
1447;DHT22;717;51.522;7.266;2023-04-24T11:14:09;11.70;99.90
1447;DHT22;717;51.522;7.266;2023-04-24T11:16:44;11.60;99.90
1447;DHT22;717;51.522;7.266;2023-04-24T11:19:24;11.50;99.90
1447;DHT22;717;51.522;7.266;2023-04-24T11:22:01;11.40;99.90
1447;DHT22;717;51.522;7.266;2023-04-24T11:24:33;11.30;99.90
1447;DHT22;717;51.522;7.266;2023-04-24T11:27:09;11.20;99.90
1447;DHT22;717;51.522;7.266;2023-04-24T11:29:41;11.20;99.90
1447;DHT22;717;51.522;7.266;2023-04-24T11:32:17;11.30;99.90
1447;DHT22;717;51.522;7.266;2023-04-24T11:34:47;11.20;99.90
1447;DHT22;717;51.522;7.266;2023-04-24T11:37:18;11.30;99.90
1447;DHT22;717;51.522;7.266;2023-04-24T11:39:49;11.30;99.90
1447;DHT22;717;51.522;7.266;2023-04-24T11:42:18;11.20;99.90
1447;DHT22;717;51.522;7.266;2023-04-24T11:44:48;11.20;99.90
1447;DHT22;717;51.522;7.266;2023-04-24T11:47:17;11.30;99.90
1447;DHT22;717;51.522;7.266;2023-04-24T11:49:46;11.40;99.90
1447;DHT22;717;51.522;7.266;2023-04-24T11:52:20;11.60;99.90
1447;DHT22;717;51.522;7.266;2023-04-24T11:55:04;11.70;99.90
1447;DHT22;717;51.522;7.266;2023-04-24T11:57:42;11.60;99.90
1447;DHT22;717;51.522;7.266;2023-04-24T12:00:16;11.50;99.90
1447;DHT22;717;51.522;7.266;2023-04-24T12:02:45;11.50;99.90
1447;DHT22;717;51.522;7.266;2023-04-24T12:05:19;11.40;99.90
1447;DHT22;717;51.522;7.266;2023-04-24T12:07:50;11.40;99.90
1447;DHT22;717;51.522;7.266;2023-04-24T12:10:20;11.40;99.90
1447;DHT22;717;51.522;7.266;2023-04-24T12:12:50;11.50;99.90
1447;DHT22;717;51.522;7.266;2023-04-24T12:15:20;11.60;99.90
1447;DHT22;717;51.522;7.266;2023-04-24T12:17:50;11.50;99.90
1447;DHT22;717;51.522;7.266;2023-04-24T12:20:24;11.40;99.90
1447;DHT22;717;51.522;7.266;2023-04-24T12:22:57;11.50;99.90
1447;DHT22;717;51.522;7.266;2023-04-24T12:25:27;11.50;99.90
1447;DHT22;717;51.522;7.266;2023-04-24T12:28:09;11.60;99.90
1447;DHT22;717;51.522;7.266;2023-04-24T12:30:41;11.70;99.90
1447;DHT22;717;51.522;7.266;2023-04-24T12:33:10;11.80;99.90
1447;DHT22;717;51.522;7.266;2023-04-24T12:35:40;11.70;99.90
1447;DHT22;717;51.522;7.266;2023-04-24T12:38:13;11.80;99.90
1447;DHT22;717;51.522;7.266;2023-04-24T12:40:43;11.80;99.90
1447;DHT22;717;51.522;7.266;2023-04-24T12:43:16;11.70;99.90
1447;DHT22;717;51.522;7.266;2023-04-24T12:45:45;11.80;99.90
1447;DHT22;717;51.522;7.266;2023-04-24T12:48:14;11.80;99.90
1447;DHT22;717;51.522;7.266;2023-04-24T12:50:42;11.80;99.90
1447;DHT22;717;51.522;7.266;2023-04-24T12:53:14;11.70;99.90
1447;DHT22;717;51.522;7.266;2023-04-24T12:55:44;11.60;99.90
1447;DHT22;717;51.522;7.266;2023-04-24T12:58:18;11.60;99.90
1447;DHT22;717;51.522;7.266;2023-04-24T13:00:47;11.70;99.90
1447;DHT22;717;51.522;7.266;2023-04-24T13:03:16;11.80;99.90
1447;DHT22;717;51.522;7.266;2023-04-24T13:05:45;11.70;99.90
1447;DHT22;717;51.522;7.266;2023-04-24T13:08:16;11.70;99.90
1447;DHT22;717;51.522;7.266;2023-04-24T13:10:45;11.80;99.90
1447;DHT22;717;51.522;7.266;2023-04-24T13:13:14;11.80;99.90
1447;DHT22;717;51.522;7.266;2023-04-24T13:15:42;11.90;99.90
1447;DHT22;717;51.522;7.266;2023-04-24T13:18:11;11.90;99.90
1447;DHT22;717;51.522;7.266;2023-04-24T13:20:40;11.90;99.90
1447;DHT22;717;51.522;7.266;2023-04-24T13:23:09;11.90;99.90
1447;DHT22;717;51.522;7.266;2023-04-24T13:25:40;12.00;99.90
1447;DHT22;717;51.522;7.266;2023-04-24T13:28:09;12.10;99.90
1447;DHT22;717;51.522;7.266;2023-04-24T13:30:38;12.10;99.90
1447;DHT22;717;51.522;7.266;2023-04-24T13:33:06;12.20;99.90
1447;DHT22;717;51.522;7.266;2023-04-24T13:35:35;12.20;99.90
1447;DHT22;717;51.522;7.266;2023-04-24T13:38:03;12.20;99.90
1447;DHT22;717;51.522;7.266;2023-04-24T13:40:33;12.10;99.90
1447;DHT22;717;51.522;7.266;2023-04-24T13:43:04;12.00;99.90
1447;DHT22;717;51.522;7.266;2023-04-24T13:45:32;12.00;99.90
1447;DHT22;717;51.522;7.266;2023-04-24T13:48:01;12.00;99.90
1447;DHT22;717;51.522;7.266;2023-04-24T13:50:30;12.10;99.90
1447;DHT22;717;51.522;7.266;2023-04-24T13:52:58;12.10;99.90
1447;DHT22;717;51.522;7.266;2023-04-24T13:55:27;12.10;99.90
1447;DHT22;717;51.522;7.266;2023-04-24T13:57:56;12.20;99.90
1447;DHT22;717;51.522;7.266;2023-04-24T14:00:28;12.10;99.90
1447;DHT22;717;51.522;7.266;2023-04-24T14:02:56;12.10;99.90
1447;DHT22;717;51.522;7.266;2023-04-24T14:05:25;12.10;99.90
1447;DHT22;717;51.522;7.266;2023-04-24T14:07:53;12.10;99.90
1447;DHT22;717;51.522;7.266;2023-04-24T14:10:22;12.10;99.90
1447;DHT22;717;51.522;7.266;2023-04-24T14:12:51;12.10;99.90
1447;DHT22;717;51.522;7.266;2023-04-24T14:15:20;12.30;99.90
1447;DHT22;717;51.522;7.266;2023-04-24T14:17:51;12.40;99.90
1447;DHT22;717;51.522;7.266;2023-04-24T14:20:20;12.60;99.90
1447;DHT22;717;51.522;7.266;2023-04-24T14:22:49;12.70;99.90
1447;DHT22;717;51.522;7.266;2023-04-24T14:25:17;12.80;99.90
1447;DHT22;717;51.522;7.266;2023-04-24T14:27:47;12.90;99.90
1447;DHT22;717;51.522;7.266;2023-04-24T14:30:16;12.90;99.90
1447;DHT22;717;51.522;7.266;2023-04-24T14:32:45;12.90;99.90
1447;DHT22;717;51.522;7.266;2023-04-24T14:35:16;13.00;99.90
1447;DHT22;717;51.522;7.266;2023-04-24T14:37:45;13.00;99.90
1447;DHT22;717;51.522;7.266;2023-04-24T14:40:14;12.90;99.90
1447;DHT22;717;51.522;7.266;2023-04-24T14:42:42;12.90;99.90
1447;DHT22;717;51.522;7.266;2023-04-24T14:45:11;12.90;99.90
1447;DHT22;717;51.522;7.266;2023-04-24T14:47:40;12.90;99.90
1447;DHT22;717;51.522;7.266;2023-04-24T14:50:09;12.90;99.90
1447;DHT22;717;51.522;7.266;2023-04-24T14:52:40;12.90;99.90
1447;DHT22;717;51.522;7.266;2023-04-24T14:55:09;13.00;99.90
1447;DHT22;717;51.522;7.266;2023-04-24T14:57:38;12.90;99.90
1447;DHT22;717;51.522;7.266;2023-04-24T15:00:08;13.00;99.90
1447;DHT22;717;51.522;7.266;2023-04-24T15:02:37;13.00;99.90
1447;DHT22;717;51.522;7.266;2023-04-24T15:05:08;13.00;99.90
1447;DHT22;717;51.522;7.266;2023-04-24T15:07:36;12.90;99.90
1447;DHT22;717;51.522;7.266;2023-04-24T15:10:10;12.90;99.90
1447;DHT22;717;51.522;7.266;2023-04-24T15:12:39;13.00;99.90
1447;DHT22;717;51.522;7.266;2023-04-24T15:15:09;13.10;99.90
1447;DHT22;717;51.522;7.266;2023-04-24T15:17:37;13.10;99.90
1447;DHT22;717;51.522;7.266;2023-04-24T15:20:07;13.00;99.90
1447;DHT22;717;51.522;7.266;2023-04-24T15:22:36;12.90;99.90
1447;DHT22;717;51.522;7.266;2023-04-24T15:25:06;12.90;99.90
1447;DHT22;717;51.522;7.266;2023-04-24T15:27:44;12.80;99.90
1447;DHT22;717;51.522;7.266;2023-04-24T15:30:13;12.90;99.90
1447;DHT22;717;51.522;7.266;2023-04-24T15:32:42;13.10;99.90
1447;DHT22;717;51.522;7.266;2023-04-24T15:35:11;13.20;99.90
1447;DHT22;717;51.522;7.266;2023-04-24T15:37:40;13.20;99.90
1447;DHT22;717;51.522;7.266;2023-04-24T15:40:09;13.30;99.90
1447;DHT22;717;51.522;7.266;2023-04-24T15:42:39;13.20;99.90
1447;DHT22;717;51.522;7.266;2023-04-24T15:45:10;13.20;99.90
1447;DHT22;717;51.522;7.266;2023-04-24T15:47:40;13.20;99.90
1447;DHT22;717;51.522;7.266;2023-04-24T15:50:09;13.20;99.90
1447;DHT22;717;51.522;7.266;2023-04-24T15:52:38;13.20;99.90
1447;DHT22;717;51.522;7.266;2023-04-24T15:55:07;13.30;99.90
1447;DHT22;717;51.522;7.266;2023-04-24T15:57:36;13.30;99.90
1447;DHT22;717;51.522;7.266;2023-04-24T16:00:06;13.40;99.90
1447;DHT22;717;51.522;7.266;2023-04-24T16:02:38;13.40;99.90
1447;DHT22;717;51.522;7.266;2023-04-24T16:05:07;13.50;99.90
1447;DHT22;717;51.522;7.266;2023-04-24T16:07:37;13.50;99.90
1447;DHT22;717;51.522;7.266;2023-04-24T16:10:07;13.60;99.90
1447;DHT22;717;51.522;7.266;2023-04-24T16:12:35;13.50;99.90
1447;DHT22;717;51.522;7.266;2023-04-24T16:15:05;13.50;99.90
1447;DHT22;717;51.522;7.266;2023-04-24T16:17:37;13.60;99.90
1447;DHT22;717;51.522;7.266;2023-04-24T16:20:06;13.60;99.90
1447;DHT22;717;51.522;7.266;2023-04-24T16:22:35;13.50;99.90
1447;DHT22;717;51.522;7.266;2023-04-24T16:25:04;13.60;99.90
1447;DHT22;717;51.522;7.266;2023-04-24T16:27:33;13.70;99.90
1447;DHT22;717;51.522;7.266;2023-04-24T16:30:03;13.70;99.90
1447;DHT22;717;51.522;7.266;2023-04-24T16:32:31;13.70;99.90
1447;DHT22;717;51.522;7.266;2023-04-24T16:35:03;13.90;99.90